Time;durP1;ratioP1;P1;durP2;ratioP2;P2;SDS_P1;SDS_P2;PMS_P1;PMS_P2;Temp;Humidity;BMP_temperature;BMP_pressure;BME280_temperature;BME280_humidity;BME280_pressure;Samples;Min_cycle;Max_cycle;Signal;HPM_P1;HPM_P2
2022/11/21 00:00:16;;;;;;;;;;;19.40;56.50;;;;;;5052810;28;19995;-62
2022/11/21 00:02:41;;;;;;;;;;;19.40;56.50;;;;;;5052501;28;19986;-62
2022/11/21 00:05:07;;;;;;;;;;;19.40;56.50;;;;;;5051747;28;20031;-62
2022/11/21 00:07:32;;;;;;;;;;;19.40;56.60;;;;;;5052572;28;19987;-62
2022/11/21 00:09:58;;;;;;;;;;;19.40;56.50;;;;;;5052331;28;19925;-62
2022/11/21 00:12:23;;;;;;;;;;;19.30;56.50;;;;;;5051926;28;20026;-61
2022/11/21 00:14:49;;;;;;;;;;;19.30;56.30;;;;;;5052201;28;20047;-62
2022/11/21 00:17:15;;;;;;;;;;;19.30;56.30;;;;;;5052315;28;19925;-62
2022/11/21 00:19:40;;;;;;;;;;;19.30;56.40;;;;;;5050967;28;19929;-62
2022/11/21 00:22:08;;;;;;;;;;;19.30;56.40;;;;;;5052167;28;20022;-62
2022/11/21 00:24:34;;;;;;;;;;;19.20;56.20;;;;;;5052300;28;19971;-62
2022/11/21 00:26:59;;;;;;;;;;;19.30;56.30;;;;;;5051268;28;19925;-62
2022/11/21 00:29:25;;;;;;;;;;;19.20;56.30;;;;;;5052498;28;20055;-62
2022/11/21 00:31:53;;;;;;;;;;;19.20;56.20;;;;;;5052876;28;20280;-62
2022/11/21 00:34:19;;;;;;;;;;;19.20;56.30;;;;;;5055749;28;19932;-62
2022/11/21 00:36:44;;;;;;;;;;;19.20;56.30;;;;;;5056272;28;19928;-62
2022/11/21 00:39:10;;;;;;;;;;;19.20;56.20;;;;;;5056187;28;20295;-62
2022/11/21 00:41:35;;;;;;;;;;;19.20;56.20;;;;;;5055328;28;19978;-62
2022/11/21 00:44:01;;;;;;;;;;;19.10;56.20;;;;;;5056279;28;19924;-62
2022/11/21 00:46:26;;;;;;;;;;;19.10;56.20;;;;;;5055465;28;19924;-61
2022/11/21 00:48:52;;;;;;;;;;;19.10;56.90;;;;;;5055906;28;19929;-62
2022/11/21 00:51:17;;;;;;;;;;;19.10;56.20;;;;;;5056094;28;20428;-62
2022/11/21 00:53:43;;;;;;;;;;;19.10;56.30;;;;;;5054863;28;19929;-62
2022/11/21 00:56:08;;;;;;;;;;;19.10;56.20;;;;;;5056022;28;19929;-62
2022/11/21 00:58:33;;;;;;;;;;;19.10;56.20;;;;;;5055725;28;19931;-61
2022/11/21 01:01:03;;;;;;;;;;;19.00;56.20;;;;;;5055406;28;20385;-62
2022/11/21 01:03:28;;;;;;;;;;;19.00;56.20;;;;;;5055762;28;19968;-62
2022/11/21 01:05:58;;;;;;;;;;;19.00;56.20;;;;;;5055492;28;19983;-62
2022/11/21 01:08:24;;;;;;;;;;;19.00;56.20;;;;;;5055437;28;19925;-62
2022/11/21 01:10:49;;;;;;;;;;;19.00;56.20;;;;;;5055502;28;20249;-62
2022/11/21 01:13:15;;;;;;;;;;;19.00;56.20;;;;;;5055872;28;19964;-61
2022/11/21 01:15:40;;;;;;;;;;;19.00;56.20;;;;;;5054743;28;19929;-61
2022/11/21 01:18:06;;;;;;;;;;;19.00;56.20;;;;;;5055732;28;19932;-62
2022/11/21 01:20:31;;;;;;;;;;;19.00;56.10;;;;;;5055077;28;20037;-61
2022/11/21 01:22:57;;;;;;;;;;;19.00;56.10;;;;;;5054598;28;19932;-62
2022/11/21 01:25:22;;;;;;;;;;;19.00;56.20;;;;;;5054920;28;19974;-62
2022/11/21 01:27:47;;;;;;;;;;;18.90;56.20;;;;;;5054095;28;19932;-62
2022/11/21 01:30:13;;;;;;;;;;;18.90;56.10;;;;;;5053359;28;20015;-62
2022/11/21 01:32:39;;;;;;;;;;;18.90;56.10;;;;;;5054016;28;19925;-62
2022/11/21 01:35:04;;;;;;;;;;;18.90;56.10;;;;;;5054068;28;19972;-62
2022/11/21 01:37:30;;;;;;;;;;;18.90;56.10;;;;;;5052936;28;20390;-62
2022/11/21 01:39:55;;;;;;;;;;;18.90;56.10;;;;;;5053989;28;19924;-62
2022/11/21 01:42:21;;;;;;;;;;;18.90;56.10;;;;;;5053694;28;20379;-62
2022/11/21 01:44:47;;;;;;;;;;;18.90;56.00;;;;;;5053005;28;19929;-62
2022/11/21 01:47:13;;;;;;;;;;;18.90;56.10;;;;;;5053938;28;19924;-62
2022/11/21 01:49:38;;;;;;;;;;;18.80;56.10;;;;;;5052705;28;19931;-62
2022/11/21 01:52:06;;;;;;;;;;;18.80;56.10;;;;;;5036002;28;20381;-62
2022/11/21 01:54:40;;;;;;;;;;;18.80;56.10;;;;;;5053387;28;19936;-62
2022/11/21 01:57:13;;;;;;;;;;;18.80;56.10;;;;;;5052937;28;20016;-62
2022/11/21 01:59:41;;;;;;;;;;;18.80;56.10;;;;;;5053566;28;19925;-61
2022/11/21 02:02:07;;;;;;;;;;;18.80;56.10;;;;;;5053787;28;19925;-62
2022/11/21 02:04:33;;;;;;;;;;;18.80;56.10;;;;;;5052260;28;20438;-62
2022/11/21 02:06:58;;;;;;;;;;;18.80;56.10;;;;;;5053586;28;19925;-62
2022/11/21 02:09:24;;;;;;;;;;;18.80;56.10;;;;;;5052039;28;19972;-62
2022/11/21 02:11:51;;;;;;;;;;;18.80;56.10;;;;;;5052587;28;19929;-62
2022/11/21 02:14:16;;;;;;;;;;;18.80;56.10;;;;;;5053536;28;19977;-62
2022/11/21 02:16:42;;;;;;;;;;;18.70;56.10;;;;;;5053038;28;20012;-61
2022/11/21 02:19:08;;;;;;;;;;;18.70;56.10;;;;;;5052569;28;19921;-62
2022/11/21 02:21:46;;;;;;;;;;;18.70;56.00;;;;;;5068602;28;19925;-62
2022/11/21 02:24:11;;;;;;;;;;;18.80;56.10;;;;;;5068936;28;19929;-62
2022/11/21 02:26:37;;;;;;;;;;;18.70;56.00;;;;;;4973951;28;1730601;-62
2022/11/21 02:29:02;;;;;;;;;;;18.70;56.10;;;;;;5054528;28;19983;-62
2022/11/21 02:31:28;;;;;;;;;;;18.70;56.80;;;;;;5054211;28;19925;-62
2022/11/21 02:33:53;;;;;;;;;;;18.70;56.00;;;;;;5053477;28;19924;-62
2022/11/21 02:36:36;;;;;;;;;;;18.70;56.00;;;;;;5053913;28;19932;-62
2022/11/21 02:39:01;;;;;;;;;;;18.70;56.00;;;;;;5069011;28;20391;-62
2022/11/21 02:41:27;;;;;;;;;;;18.70;56.10;;;;;;5053956;28;19975;-62
2022/11/21 02:44:00;;;;;;;;;;;18.70;56.10;;;;;;5069177;28;19967;-62
2022/11/21 02:46:26;;;;;;;;;;;18.70;56.10;;;;;;5053375;28;19928;-62
2022/11/21 02:48:51;;;;;;;;;;;18.70;56.00;;;;;;5069382;28;19974;-62
2022/11/21 02:51:17;;;;;;;;;;;18.70;55.90;;;;;;5053954;28;19967;-62
2022/11/21 02:53:42;;;;;;;;;;;18.70;56.00;;;;;;5052601;28;20373;-62
2022/11/21 02:56:10;;;;;;;;;;;18.70;56.00;;;;;;5052997;28;19978;-62
2022/11/21 02:58:36;;;;;;;;;;;18.70;56.00;;;;;;5053425;28;19925;-62
2022/11/21 03:01:01;;;;;;;;;;;18.70;56.00;;;;;;5052718;28;19925;-62
2022/11/21 03:03:27;;;;;;;;;;;18.70;56.10;;;;;;5053344;28;19929;-62
2022/11/21 03:05:52;;;;;;;;;;;18.70;55.90;;;;;;5053205;28;19979;-62
2022/11/21 03:08:18;;;;;;;;;;;18.70;55.90;;;;;;5052813;28;19925;-62
2022/11/21 03:10:43;;;;;;;;;;;18.70;55.90;;;;;;5053030;28;20015;-62
2022/11/21 03:13:09;;;;;;;;;;;18.70;55.90;;;;;;5053675;28;19925;-62
2022/11/21 03:15:34;;;;;;;;;;;18.70;55.90;;;;;;5052192;28;19929;-62
2022/11/21 03:18:01;;;;;;;;;;;18.70;55.80;;;;;;5053074;28;19925;-62
2022/11/21 03:20:27;;;;;;;;;;;18.70;55.90;;;;;;5053193;28;19931;-62
2022/11/21 03:22:53;;;;;;;;;;;18.70;55.80;;;;;;5052576;28;19932;-61
2022/11/21 03:25:19;;;;;;;;;;;18.70;55.90;;;;;;5053261;28;19932;-62
2022/11/21 03:27:44;;;;;;;;;;;18.70;56.50;;;;;;5053091;28;19924;-62
2022/11/21 03:30:10;;;;;;;;;;;18.70;55.80;;;;;;5052284;28;19929;-62
2022/11/21 03:32:35;;;;;;;;;;;18.70;55.80;;;;;;5052805;28;19932;-61
2022/11/21 03:35:01;;;;;;;;;;;18.70;55.80;;;;;;5053015;28;20399;-62
2022/11/21 03:37:26;;;;;;;;;;;18.70;55.80;;;;;;5052156;28;19978;-62
2022/11/21 03:39:52;;;;;;;;;;;18.70;55.80;;;;;;5052776;28;19921;-61
2022/11/21 03:42:17;;;;;;;;;;;18.70;55.80;;;;;;5067747;28;19999;-61
2022/11/21 03:44:43;;;;;;;;;;;18.80;55.80;;;;;;5068064;28;19932;-62
2022/11/21 03:47:08;;;;;;;;;;;18.80;55.80;;;;;;5052660;28;19928;-62
2022/11/21 03:49:33;;;;;;;;;;;18.80;56.50;;;;;;5051773;28;19929;-61
2022/11/21 03:51:59;;;;;;;;;;;18.80;55.80;;;;;;5052854;28;19925;-62
2022/11/21 03:54:24;;;;;;;;;;;18.80;55.80;;;;;;5052651;28;19928;-62
2022/11/21 03:56:50;;;;;;;;;;;18.80;55.70;;;;;;5051531;28;19931;-61
2022/11/21 03:59:15;;;;;;;;;;;18.80;55.70;;;;;;5052917;28;20360;-61
2022/11/21 04:01:41;;;;;;;;;;;18.90;55.70;;;;;;5052288;28;19936;-62
2022/11/21 04:04:06;;;;;;;;;;;18.80;55.60;;;;;;5051937;28;20015;-62
2022/11/21 04:06:32;;;;;;;;;;;18.90;55.70;;;;;;5052104;28;20277;-62
2022/11/21 04:08:57;;;;;;;;;;;18.90;55.50;;;;;;5052562;28;19931;-61
2022/11/21 04:11:23;;;;;;;;;;;18.90;55.60;;;;;;5051931;28;19925;-61
2022/11/21 04:13:49;;;;;;;;;;;18.90;55.50;;;;;;5052056;28;19925;-62
2022/11/21 04:16:15;;;;;;;;;;;19.00;55.50;;;;;;5034337;28;19925;-62
2022/11/21 04:18:40;;;;;;;;;;;19.00;55.50;;;;;;5051627;28;19940;-61
2022/11/21 04:21:06;;;;;;;;;;;19.00;55.50;;;;;;5052489;28;19929;-61
2022/11/21 04:23:31;;;;;;;;;;;19.00;55.50;;;;;;5052083;28;20300;-62
2022/11/21 04:25:57;;;;;;;;;;;19.00;55.50;;;;;;5051378;28;19932;-62
2022/11/21 04:28:22;;;;;;;;;;;19.00;55.50;;;;;;5052378;28;19931;-62
2022/11/21 04:30:48;;;;;;;;;;;19.00;55.40;;;;;;5052023;28;19924;-62
2022/11/21 04:33:14;;;;;;;;;;;19.00;55.40;;;;;;5066990;28;19925;-61
2022/11/21 04:35:39;;;;;;;;;;;19.00;55.40;;;;;;5052036;28;19925;-62
2022/11/21 04:38:05;;;;;;;;;;;19.00;55.40;;;;;;5052162;28;19925;-61
2022/11/21 04:40:30;;;;;;;;;;;19.00;55.30;;;;;;5051149;28;20319;-61
2022/11/21 04:42:56;;;;;;;;;;;19.00;55.30;;;;;;5052399;28;19972;-61
2022/11/21 04:45:21;;;;;;;;;;;19.00;55.30;;;;;;5052313;28;19986;-61
2022/11/21 04:47:48;;;;;;;;;;;19.10;55.30;;;;;;5050978;28;20016;-62
2022/11/21 04:50:14;;;;;;;;;;;19.10;55.30;;;;;;5052037;28;19924;-61
2022/11/21 04:52:39;;;;;;;;;;;19.10;55.20;;;;;;5051222;28;19921;-61
2022/11/21 04:55:05;;;;;;;;;;;19.10;55.30;;;;;;5052265;28;19978;-61
2022/11/21 04:57:31;;;;;;;;;;;19.10;55.30;;;;;;5051652;28;20088;-62
2022/11/21 04:59:56;;;;;;;;;;;19.10;55.30;;;;;;5051316;28;20302;-61
2022/11/21 05:02:22;;;;;;;;;;;19.10;55.20;;;;;;5070870;28;19924;-61
2022/11/21 05:04:47;;;;;;;;;;;19.20;55.30;;;;;;5070709;28;20292;-62
2022/11/21 05:07:13;;;;;;;;;;;19.20;55.20;;;;;;5070574;28;19928;-62
2022/11/21 05:09:38;;;;;;;;;;;19.20;55.20;;;;;;5071483;28;19931;-62
2022/11/21 05:14:54;;;;;;;;;;;19.20;55.10;;;;;;5051212;28;19924;-62
2022/11/21 05:17:20;;;;;;;;;;;19.20;55.10;;;;;;5052235;28;20283;-61
2022/11/21 05:19:45;;;;;;;;;;;19.20;55.10;;;;;;5054924;28;19925;-61
2022/11/21 05:22:11;;;;;;;;;;;19.20;55.10;;;;;;5054782;28;19940;-61
2022/11/21 05:24:36;;;;;;;;;;;19.20;55.00;;;;;;5054898;28;20008;-61
2022/11/21 05:27:02;;;;;;;;;;;19.20;55.00;;;;;;5055299;28;19925;-61
2022/11/21 05:29:27;;;;;;;;;;;19.30;55.00;;;;;;5054556;28;19972;-62
2022/11/21 05:31:53;;;;;;;;;;;19.30;55.00;;;;;;5055119;28;19925;-61
2022/11/21 05:34:18;;;;;;;;;;;19.30;55.00;;;;;;5055133;28;20454;-62
2022/11/21 05:36:44;;;;;;;;;;;19.30;54.90;;;;;;5054126;28;19983;-62
2022/11/21 05:39:09;;;;;;;;;;;19.30;55.00;;;;;;5055438;28;19924;-62
2022/11/21 05:41:35;;;;;;;;;;;19.30;55.00;;;;;;5055110;28;20396;-62
2022/11/21 05:44:00;;;;;;;;;;;19.30;54.90;;;;;;5054232;28;19967;-62
2022/11/21 05:46:25;;;;;;;;;;;19.30;54.90;;;;;;5055312;28;20287;-62
2022/11/21 05:48:51;;;;;;;;;;;19.30;55.00;;;;;;5054290;28;20021;-62
2022/11/21 05:51:17;;;;;;;;;;;19.40;55.00;;;;;;5054839;28;19924;-62
2022/11/21 05:53:43;;;;;;;;;;;19.40;55.00;;;;;;5054416;28;19971;-62
2022/11/21 05:56:13;;;;;;;;;;;19.40;54.90;;;;;;5054246;28;19928;-62
2022/11/21 05:58:38;;;;;;;;;;;19.40;54.90;;;;;;5054173;28;19948;-62
2022/11/21 06:01:04;;;;;;;;;;;19.40;54.90;;;;;;5055094;28;20307;-61
2022/11/21 06:03:31;;;;;;;;;;;19.40;54.90;;;;;;5053816;28;19924;-61
2022/11/21 06:05:58;;;;;;;;;;;19.30;54.80;;;;;;5054703;28;19991;-61
2022/11/21 06:08:24;;;;;;;;;;;19.40;54.90;;;;;;5054463;28;19929;-62
2022/11/21 06:10:49;;;;;;;;;;;19.40;54.80;;;;;;5053769;28;19981;-62
2022/11/21 06:13:21;;;;;;;;;;;19.40;54.80;;;;;;5054731;28;19929;-61
2022/11/21 06:15:47;;;;;;;;;;;19.40;54.80;;;;;;5054402;28;20529;-61
2022/11/21 06:18:13;;;;;;;;;;;19.40;54.70;;;;;;5053476;28;19935;-61
2022/11/21 06:20:38;;;;;;;;;;;19.40;54.80;;;;;;5053976;28;19921;-61
2022/11/21 06:23:04;;;;;;;;;;;19.40;54.70;;;;;;5054226;28;20047;-61
2022/11/21 06:25:29;;;;;;;;;;;19.40;54.60;;;;;;5052916;28;19931;-62
2022/11/21 06:27:54;;;;;;;;;;;19.50;54.80;;;;;;5054431;28;19978;-61
2022/11/21 06:30:20;;;;;;;;;;;19.40;54.70;;;;;;5053250;28;19925;-62
2022/11/21 06:32:45;;;;;;;;;;;19.40;54.60;;;;;;5053359;28;20370;-61
2022/11/21 06:35:11;;;;;;;;;;;19.50;54.70;;;;;;5053892;28;19936;-62
2022/11/21 06:37:36;;;;;;;;;;;19.50;54.70;;;;;;5053840;28;19940;-62
2022/11/21 06:40:02;;;;;;;;;;;19.50;54.60;;;;;;5053242;28;20388;-61
2022/11/21 06:42:27;;;;;;;;;;;19.50;55.30;;;;;;5053862;28;19929;-62
2022/11/21 06:44:53;;;;;;;;;;;19.50;54.60;;;;;;5054003;28;19987;-61
2022/11/21 06:47:18;;;;;;;;;;;19.50;54.60;;;;;;5053270;28;19937;-62
2022/11/21 06:49:47;;;;;;;;;;;19.50;54.50;;;;;;5053324;28;19924;-62
2022/11/21 06:52:15;;;;;;;;;;;19.50;54.50;;;;;;5053138;28;19931;-62
2022/11/21 06:54:41;;;;;;;;;;;19.50;54.50;;;;;;5053002;28;19924;-62
2022/11/21 06:57:06;;;;;;;;;;;19.50;54.50;;;;;;5053943;28;19925;-62
2022/11/21 06:59:32;;;;;;;;;;;19.50;54.40;;;;;;5052558;28;19927;-61
2022/11/21 07:01:57;;;;;;;;;;;19.50;54.40;;;;;;5053531;28;19925;-61
2022/11/21 07:04:23;;;;;;;;;;;19.60;54.50;;;;;;5053727;28;20273;-62
2022/11/21 07:06:48;;;;;;;;;;;19.60;54.40;;;;;;5052235;28;20008;-62
2022/11/21 07:09:14;;;;;;;;;;;19.60;54.30;;;;;;5068813;28;19924;-62
2022/11/21 07:11:39;;;;;;;;;;;19.60;54.40;;;;;;5053010;28;19924;-62
2022/11/21 07:14:05;;;;;;;;;;;19.60;54.30;;;;;;5052701;28;20011;-61
2022/11/21 07:16:31;;;;;;;;;;;19.60;54.30;;;;;;5053047;28;20412;-62
2022/11/21 07:18:57;;;;;;;;;;;19.60;54.30;;;;;;5068527;28;19927;-63
2022/11/21 07:21:22;;;;;;;;;;;19.60;54.30;;;;;;5052474;28;19925;-62
2022/11/21 07:23:47;;;;;;;;;;;19.60;54.20;;;;;;5052607;28;19932;-62
2022/11/21 07:26:13;;;;;;;;;;;19.60;54.20;;;;;;5052966;28;20034;-62
2022/11/21 07:28:38;;;;;;;;;;;19.60;54.10;;;;;;5051862;28;19979;-62
2022/11/21 07:31:04;;;;;;;;;;;19.60;54.10;;;;;;5053111;28;20019;-62
2022/11/21 07:33:29;;;;;;;;;;;19.60;54.10;;;;;;5052811;28;19968;-62
2022/11/21 07:35:56;;;;;;;;;;;19.60;54.10;;;;;;5052006;28;19925;-62
2022/11/21 07:38:22;;;;;;;;;;;19.60;54.10;;;;;;5053195;28;19929;-63
2022/11/21 07:40:47;;;;;;;;;;;19.60;54.30;;;;;;5052537;28;20291;-62
2022/11/21 07:43:13;;;;;;;;;;;19.60;54.30;;;;;;5052262;28;19931;-61
2022/11/21 07:45:38;;;;;;;;;;;19.60;54.50;;;;;;5052560;28;19986;-62
2022/11/21 07:48:04;;;;;;;;;;;19.60;54.60;;;;;;5059207;28;19931;-62
2022/11/21 07:50:29;;;;;;;;;;;19.70;54.90;;;;;;5068788;28;19925;-62
2022/11/21 07:52:56;;;;;;;;;;;19.70;54.90;;;;;;5072644;28;20372;-62
2022/11/21 07:55:21;;;;;;;;;;;19.70;55.00;;;;;;5071961;28;20342;-62
2022/11/21 07:57:46;;;;;;;;;;;19.70;55.10;;;;;;5072439;28;19924;-61
2022/11/21 08:00:12;;;;;;;;;;;19.80;55.30;;;;;;5072438;28;19928;-62
2022/11/21 08:02:38;;;;;;;;;;;19.80;55.40;;;;;;5071872;28;20019;-62
2022/11/21 08:05:03;;;;;;;;;;;19.80;55.30;;;;;;5072440;28;20010;-63
2022/11/21 08:07:29;;;;;;;;;;;19.80;55.50;;;;;;5072223;28;19925;-63
2022/11/21 08:09:55;;;;;;;;;;;19.80;56.30;;;;;;5071649;28;19924;-63
2022/11/21 08:12:20;;;;;;;;;;;19.80;55.50;;;;;;5072540;28;20023;-63
2022/11/21 08:14:46;;;;;;;;;;;19.80;55.60;;;;;;5054130;28;19950;-61
2022/11/21 08:17:12;;;;;;;;;;;19.90;55.60;;;;;;5071924;28;20376;-61
2022/11/21 08:19:38;;;;;;;;;;;19.80;55.50;;;;;;5071993;28;19925;-61
2022/11/21 08:22:03;;;;;;;;;;;19.90;55.70;;;;;;5072204;28;19924;-62
2022/11/21 08:24:29;;;;;;;;;;;19.90;55.70;;;;;;5071664;28;19971;-62
2022/11/21 08:26:54;;;;;;;;;;;19.90;55.80;;;;;;5072083;28;19924;-62
2022/11/21 08:29:20;;;;;;;;;;;19.90;55.80;;;;;;5072685;28;19925;-62
2022/11/21 08:31:45;;;;;;;;;;;19.90;55.90;;;;;;5071497;28;19931;-62
2022/11/21 08:34:11;;;;;;;;;;;19.90;55.90;;;;;;5072010;28;19987;-62
2022/11/21 08:36:36;;;;;;;;;;;20.00;56.00;;;;;;5071689;28;19931;-63
2022/11/21 08:39:02;;;;;;;;;;;20.00;56.00;;;;;;5071803;28;20364;-63
2022/11/21 08:44:12;;;;;;;;;;;20.00;56.10;;;;;;5072268;28;19933;-63
2022/11/21 08:46:37;;;;;;;;;;;20.00;56.00;;;;;;5071345;28;19985;-64
2022/11/21 08:49:03;;;;;;;;;;;20.00;56.60;;;;;;5071883;28;19924;-64
2022/11/21 08:51:28;;;;;;;;;;;20.10;55.90;;;;;;5053729;28;19924;-63
2022/11/21 08:53:54;;;;;;;;;;;20.00;55.60;;;;;;5074062;28;19963;-62
2022/11/21 08:56:19;;;;;;;;;;;20.10;55.70;;;;;;5075882;28;20439;-62
2022/11/21 08:58:45;;;;;;;;;;;20.00;55.50;;;;;;5074939;28;19924;-62
2022/11/21 09:01:10;;;;;;;;;;;20.10;55.70;;;;;;5057989;28;20007;-63
2022/11/21 09:03:36;;;;;;;;;;;20.10;55.60;;;;;;5075582;28;19928;-63
2022/11/21 09:06:01;;;;;;;;;;;20.10;55.60;;;;;;5074879;28;19924;-63
2022/11/21 09:08:27;;;;;;;;;;;20.10;55.50;;;;;;5075525;28;20291;-62
2022/11/21 09:10:53;;;;;;;;;;;20.10;55.70;;;;;;5075706;28;19924;-60
2022/11/21 09:13:18;;;;;;;;;;;20.10;55.80;;;;;;5075322;28;20020;-61
2022/11/21 09:18:28;;;;;;;;;;;20.20;55.90;;;;;;5075455;28;19925;-60
2022/11/21 09:20:53;;;;;;;;;;;20.20;55.90;;;;;;5073751;28;19920;-59
2022/11/21 09:23:19;;;;;;;;;;;20.20;55.80;;;;;;5074431;28;19972;-58
2022/11/21 09:25:44;;;;;;;;;;;20.20;55.90;;;;;;5075059;28;19928;-59
2022/11/21 09:28:10;;;;;;;;;;;20.20;55.90;;;;;;5074490;28;19924;-60
2022/11/21 09:30:36;;;;;;;;;;;20.10;55.80;;;;;;5075236;28;20023;-60
2022/11/21 09:33:02;;;;;;;;;;;20.20;55.70;;;;;;5074403;28;20311;-61
2022/11/21 09:35:27;;;;;;;;;;;20.20;55.80;;;;;;5073674;28;19970;-61
2022/11/21 09:37:53;;;;;;;;;;;20.10;55.70;;;;;;5075404;28;19962;-61
2022/11/21 09:40:18;;;;;;;;;;;20.20;55.80;;;;;;5075193;28;19925;-61
2022/11/21 09:43:03;;;;;;;;;;;20.20;56.50;;;;;;5089859;28;20344;-61
2022/11/21 09:45:48;;;;;;;;;;;20.20;55.60;;;;;;5073834;28;20420;-62
2022/11/21 09:48:34;;;;;;;;;;;20.20;55.60;;;;;;5074002;28;19934;-62
2022/11/21 09:51:01;;;;;;;;;;;20.10;55.60;;;;;;5073062;28;19925;-67
2022/11/21 09:55:34;;;;;;;7.10;3.35;;;20.20;56.50;;;;;;5089431;27;20544;-57
2022/11/21 09:58:03;;;;;;;7.00;3.55;;;20.30;55.60;;;;;;5089900;28;20048;-58
2022/11/21 10:00:29;;;;;;;10.75;2.97;;;20.30;55.20;;;;;;5088485;28;20040;-56
2022/11/21 10:02:54;;;;;;;6.32;3.60;;;20.30;55.10;;;;;;5089256;28;20052;-56
2022/11/21 10:05:28;;;;;;;5.72;3.45;;;20.30;55.10;;;;;;5088508;28;20451;-56
2022/11/21 10:07:54;;;;;;;6.07;3.75;;;20.20;55.00;;;;;;5071699;28;20048;-56
2022/11/21 10:10:23;;;;;;;7.97;3.42;;;20.10;55.00;;;;;;5087698;28;20051;-57
2022/11/21 10:13:05;;;;;;;6.97;3.67;;;20.10;55.00;;;;;;5088350;28;20044;-58
2022/11/21 10:15:57;;;;;;;8.15;3.08;;;20.10;55.40;;;;;;5088203;28;20055;-60
2022/11/21 10:18:38;;;;;;;6.00;3.40;;;20.00;55.20;;;;;;5087693;28;20071;-60
2022/11/21 10:21:29;;;;;;;7.85;3.42;;;20.00;55.30;;;;;;5089287;28;20047;-60
2022/11/21 10:24:01;;;;;;;6.82;3.42;;;20.00;55.40;;;;;;5087603;28;20051;-59
2022/11/21 10:26:45;;;;;;;6.82;3.35;;;20.00;55.50;;;;;;5088002;28;20044;-59
2022/11/21 10:29:36;;;;;;;8.15;3.70;;;20.00;55.50;;;;;;5089419;28;20044;-59
2022/11/21 10:32:28;;;;;;;6.50;3.42;;;20.00;55.40;;;;;;5087647;28;20185;-59
2022/11/21 10:34:58;;;;;;;7.47;3.90;;;19.90;55.40;;;;;;5087870;28;20446;-59
2022/11/21 10:37:37;;;;;;;7.05;3.88;;;19.90;55.40;;;;;;5087131;28;20075;-60
2022/11/21 10:40:12;;;;;;;7.45;4.22;;;19.90;55.40;;;;;;5089061;28;20048;-60
2022/11/21 10:42:56;;;;;;;6.63;4.07;;;19.90;55.40;;;;;;5087623;28;20381;-60
2022/11/21 10:45:22;;;;;;;5.80;4.25;;;19.90;55.40;;;;;;5087252;28;20140;-60
2022/11/21 10:47:51;;;;;;;9.00;5.30;;;19.90;55.40;;;;;;5088413;28;20495;-60
2022/11/21 10:50:32;;;;;;;9.65;4.30;;;19.80;55.60;;;;;;5088811;28;20051;-60
2022/11/21 10:54:31;;;;;;;9.48;4.75;;;19.80;55.90;;;;;;5087936;28;20123;-59
2022/11/21 10:56:07;;;;;;;12.82;5.28;;;19.80;56.10;;;;;;5088796;28;20060;-60
2022/11/21 10:58:50;;;;;;;9.98;4.57;;;19.80;56.20;;;;;;5087744;28;20056;-59
2022/11/21 11:01:19;;;;;;;8.15;4.97;;;19.80;56.10;;;;;;5088811;28;20040;-59
2022/11/21 11:03:45;;;;;;;9.23;4.43;;;19.80;56.10;;;;;;5088728;28;20052;-59
2022/11/21 11:06:10;;;;;;;8.30;4.63;;;19.80;56.20;;;;;;5076646;28;20181;-59
2022/11/21 11:08:50;;;;;;;8.07;4.00;;;19.80;56.20;;;;;;5073725;28;20075;-59
2022/11/21 11:11:15;;;;;;;6.82;4.30;;;19.80;56.30;;;;;;5074992;28;20051;-59
2022/11/21 11:13:54;;;;;;;8.30;4.38;;;19.80;56.20;;;;;;5072629;28;20040;-59
2022/11/21 11:16:20;;;;;;;7.18;4.03;;;19.80;56.30;;;;;;5073905;28;20396;-59
2022/11/21 11:18:46;;;;;;;7.07;4.55;;;19.90;56.30;;;;;;5073516;28;20048;-59
2022/11/21 11:21:28;;;;;;;8.98;4.00;;;19.90;56.30;;;;;;5072784;28;20044;-59
2022/11/21 11:24:10;;;;;;;7.22;4.40;;;19.90;56.30;;;;;;5074457;28;20044;-59
2022/11/21 11:26:48;;;;;;;8.30;4.43;;;19.90;56.20;;;;;;5073719;28;20088;-60
2022/11/21 11:29:16;;;;;;;8.85;4.80;;;19.90;55.80;;;;;;5074828;28;20044;-60
2022/11/21 11:31:43;;;;;;;8.55;4.32;;;19.90;55.40;;;;;;5074600;28;20054;-59
2022/11/21 11:34:13;;;;;;;7.88;4.35;;;19.90;55.30;;;;;;5074073;28;20222;-59
2022/11/21 11:36:55;;;;;;;7.20;4.20;;;19.90;55.40;;;;;;5074050;28;20495;-59
2022/11/21 11:40:03;;;;;;;6.88;3.67;;;19.90;55.40;;;;;;5073363;28;20527;-59
2022/11/21 11:48:11;;;;;;;7.13;3.90;;;19.90;55.50;;;;;;5073650;28;20052;-59
2022/11/21 11:50:47;;;;;;;7.13;3.90;;;19.90;55.50;;;;;;5074061;28;20041;-59
2022/11/21 11:53:21;;;;;;;7.15;4.13;;;19.90;55.50;;;;;;5073252;28;20132;-59
2022/11/21 11:56:19;;;;;;;9.57;4.22;;;19.90;55.50;;;;;;5072336;28;20261;-59
2022/11/21 11:58:59;;;;;;;8.27;4.10;;;19.90;56.00;;;;;;5064728;28;20052;-59
2022/11/21 12:01:52;;;;;;;7.82;4.30;;;19.90;55.40;;;;;;5073291;28;20476;-59
2022/11/21 12:04:23;;;;;;;9.52;4.10;;;20.00;55.30;;;;;;5071290;28;20162;-59
2022/11/21 12:06:55;;;;;;;8.13;4.22;;;19.90;55.20;;;;;;5072619;28;20087;-59
2022/11/21 12:09:43;;;;;;;9.77;4.13;;;20.00;55.20;;;;;;5072688;28;20127;-59
2022/11/21 12:12:25;;;;;;;8.15;4.07;;;20.00;55.30;;;;;;5087800;28;20079;-59
2022/11/21 12:18:15;;;;;;;6.43;4.15;;;20.00;55.50;;;;;;5072097;28;20131;-59
2022/11/21 12:20:52;;;;;;;7.80;3.40;;;20.00;55.80;;;;;;5070883;28;20036;-60
2022/11/21 12:23:18;;;;;;;6.20;3.58;;;20.00;55.80;;;;;;5070399;28;20392;-59
2022/11/21 12:25:55;;;;;;;6.75;3.78;;;20.00;55.90;;;;;;5073229;28;20033;-60
2022/11/21 12:28:28;;;;;;;7.95;3.72;;;20.00;55.90;;;;;;5071275;28;20087;-59
2022/11/21 12:31:08;;;;;;;6.78;3.72;;;20.10;56.00;;;;;;5072491;28;20036;-60
2022/11/21 12:33:36;;;;;;;7.25;3.55;;;20.10;56.10;;;;;;5071788;28;20047;-60
2022/11/21 12:36:34;;;;;;;9.20;3.80;;;20.00;56.00;;;;;;5072117;28;20044;-61
2022/11/21 12:39:09;;;;;;;;;;;20.10;56.10;;;;;;5066645;28;20037;-59
2022/11/21 12:43:21;;;;;;;7.30;3.72;;;20.10;56.10;;;;;;5065994;28;20418;-58
2022/11/21 12:45:50;;;;;;;7.05;3.00;;;20.10;56.10;;;;;;5065986;28;20045;-58
2022/11/21 12:54:29;;;;;;;5.97;3.15;;;20.10;56.20;;;;;;5045871;28;20041;-59
2022/11/21 12:57:20;;;;;;;6.93;3.63;;;20.20;56.20;;;;;;5046777;28;20129;-59
2022/11/21 12:59:47;;;;;;;5.85;3.40;;;20.20;56.20;;;;;;5046298;28;20038;-59
2022/11/21 13:02:33;;;;;;;5.50;3.03;;;20.20;56.20;;;;;;5047692;28;20073;-60
2022/11/21 13:04:59;;;;;;;6.22;3.40;;;20.30;56.20;;;;;;5030458;28;20049;-59
2022/11/21 13:07:27;;;;;;;7.55;3.75;;;20.30;56.20;;;;;;5048727;28;20044;-59
2022/11/21 13:09:53;;;;;;;5.75;3.33;;;20.20;56.20;;;;;;5046032;28;20148;-60
2022/11/21 13:12:21;;;;;;;5.45;3.38;;;20.30;56.10;;;;;;5046048;28;20540;-59
2022/11/21 13:14:50;;;;;;;6.82;3.58;;;20.20;56.10;;;;;;5043150;28;20102;-61
2022/11/21 13:17:24;;;;;;;6.32;3.08;;;20.30;56.10;;;;;;5048613;28;20045;-60
2022/11/21 13:19:59;;;;;;;4.70;3.15;;;20.30;56.20;;;;;;5059627;28;20060;-61
2022/11/21 13:22:36;;;;;;;6.57;3.30;;;20.30;56.20;;;;;;5045350;28;20131;-60
2022/11/21 13:25:07;;;;;;;6.65;3.35;;;20.30;56.20;;;;;;5047921;28;20136;-60
2022/11/21 13:27:36;;;;;;;5.43;3.47;;;20.30;56.10;;;;;;5046207;28;20171;-60
2022/11/21 13:30:09;;;;;;;6.72;3.08;;;20.30;56.10;;;;;;5047054;28;20052;-60
2022/11/21 13:32:47;;;;;;;5.45;3.35;;;20.30;56.10;;;;;;5048513;28;20083;-61
2022/11/21 13:35:18;;;;;;;4.78;3.05;;;20.30;56.10;;;;;;5048007;28;20049;-60
2022/11/21 13:38:09;;;;;;;4.93;2.83;;;20.30;56.00;;;;;;5048430;28;20041;-60
2022/11/21 13:42:56;;;;;;;4.78;3.13;;;20.30;56.10;;;;;;5047760;28;20084;-60
2022/11/21 13:43:29;;;;;;;5.72;3.13;;;20.30;56.10;;;;;;5048123;28;20449;-60
2022/11/21 13:45:57;;;;;;;6.75;3.22;;;20.30;56.00;;;;;;5048592;28;20120;-59
2022/11/21 13:48:50;;;;;;;5.28;3.30;;;20.30;56.10;;;;;;5047494;28;20083;-63
2022/11/21 13:51:30;;;;;;;6.20;3.30;;;20.30;55.90;;;;;;5035523;28;61193;-60
2022/11/21 13:54:20;;;;;;;6.50;3.75;;;20.30;56.00;;;;;;5042320;28;20404;-60
2022/11/21 13:56:58;;;;;;;5.57;3.67;;;20.30;56.00;;;;;;5014664;28;20415;-59
2022/11/21 13:59:47;;;;;;;6.00;3.58;;;20.30;56.00;;;;;;5034632;28;20041;-59
2022/11/21 14:02:43;;;;;;;6.63;3.40;;;20.40;56.10;;;;;;5048199;28;20046;-60
2022/11/21 14:05:33;;;;;;;5.30;3.47;;;20.30;56.20;;;;;;5050140;28;20401;-60
2022/11/21 14:08:22;;;;;;;4.50;3.08;;;20.40;56.20;;;;;;5047859;28;20046;-60
2022/11/21 14:10:49;;;;;;;5.68;3.03;;;20.40;56.20;;;;;;5034432;28;20048;-59
2022/11/21 14:13:26;;;;;;;5.60;3.03;;;20.40;56.20;;;;;;5049836;28;20390;-60
2022/11/21 14:16:19;;;;;;;5.38;3.60;;;20.40;56.20;;;;;;5033827;28;20099;-59
2022/11/21 14:18:45;;;;;;;5.03;3.25;;;20.40;56.30;;;;;;5034202;28;20127;-60
2022/11/21 14:21:27;;;;;;;5.53;3.08;;;20.40;56.20;;;;;;5049484;28;20046;-59
2022/11/21 14:24:03;;;;;;;6.13;3.40;;;20.30;56.20;;;;;;5033854;28;20045;-60
2022/11/21 14:26:30;;;;;;;5.38;3.45;;;20.40;56.30;;;;;;5049177;28;20070;-60